OMSJ/SHJ METAR and TAF weather

Enter ICAO airport designator
Station Type Date Time Source
OMSJ METAR 2020/11/28 20:00 UTC NOAA

OMSJ 282000Z 07004KT CAVOK 22/14 Q1018 NOSIG


Station Type Date Time Source
OMSJ Decoded METAR 2020/11/28 20:00 UTC NOAA

Sharjah International Airport, United Arab Emirates (OMSJ) 25-20N 055-31E 33M
Nov 28, 2020 - 03:00 PM EST / 2020.11.28 2000 UTC
Wind: from the ENE (070 degrees) at 5 MPH (4 KT):0
Visibility: greater than 7 mile(s):0
Temperature: 71 F (22 C)
Dew Point: 57 F (14 C)
Relative Humidity: 60%
Pressure (altimeter): 30.06 in. Hg (1018 hPa)
ob: OMSJ 282000Z 07004KT CAVOK 22/14 Q1018 NOSIG
cycle: 20

Station Type Date Time Source
OMSJ TAF 2020/11/28 18:01 UTC NOAA

TAF OMSJ 281700Z 2818/3000 09008KT CAVOK
BECMG 2905/2907 19010KT
BECMG 2910/2912 34010KT
BECMG 2915/2917 12005KT

Example: see airport list